sensor_id;sensor_type;location;lat;lon;timestamp;P1;durP1;ratioP1;P2;durP2;ratioP2
12880;SDS011;6508;53.786;9.996;2024-02-23T00:02:09;4.63;;;4.53;;
12880;SDS011;6508;53.786;9.996;2024-02-23T00:04:37;5.80;;;5.50;;
12880;SDS011;6508;53.786;9.996;2024-02-23T00:07:05;6.20;;;5.78;;
12880;SDS011;6508;53.786;9.996;2024-02-23T00:09:34;5.60;;;5.40;;
12880;SDS011;6508;53.786;9.996;2024-02-23T00:12:02;6.07;;;5.78;;
12880;SDS011;6508;53.786;9.996;2024-02-23T00:14:30;5.15;;;5.03;;
12880;SDS011;6508;53.786;9.996;2024-02-23T00:16:59;4.78;;;4.57;;
12880;SDS011;6508;53.786;9.996;2024-02-23T00:19:29;4.50;;;4.28;;
12880;SDS011;6508;53.786;9.996;2024-02-23T00:21:57;4.82;;;4.72;;
12880;SDS011;6508;53.786;9.996;2024-02-23T00:24:26;4.85;;;4.75;;
12880;SDS011;6508;53.786;9.996;2024-02-23T00:26:56;5.07;;;4.88;;
12880;SDS011;6508;53.786;9.996;2024-02-23T00:29:24;6.68;;;6.20;;
12880;SDS011;6508;53.786;9.996;2024-02-23T00:31:51;5.75;;;5.65;;
12880;SDS011;6508;53.786;9.996;2024-02-23T00:34:19;6.30;;;6.10;;
12880;SDS011;6508;53.786;9.996;2024-02-23T00:36:49;6.07;;;5.88;;
12880;SDS011;6508;53.786;9.996;2024-02-23T00:39:16;6.60;;;6.40;;
12880;SDS011;6508;53.786;9.996;2024-02-23T00:41:44;6.97;;;6.78;;
12880;SDS011;6508;53.786;9.996;2024-02-23T00:44:13;9.63;;;9.32;;
12880;SDS011;6508;53.786;9.996;2024-02-23T00:46:41;11.07;;;10.70;;
12880;SDS011;6508;53.786;9.996;2024-02-23T00:49:09;11.40;;;10.93;;
12880;SDS011;6508;53.786;9.996;2024-02-23T00:51:37;11.50;;;11.10;;
12880;SDS011;6508;53.786;9.996;2024-02-23T00:54:05;11.07;;;10.77;;
12880;SDS011;6508;53.786;9.996;2024-02-23T00:56:34;10.85;;;10.45;;
12880;SDS011;6508;53.786;9.996;2024-02-23T00:59:17;10.15;;;9.75;;
12880;SDS011;6508;53.786;9.996;2024-02-23T01:01:45;9.68;;;9.27;;
12880;SDS011;6508;53.786;9.996;2024-02-23T01:04:13;9.70;;;9.40;;
12880;SDS011;6508;53.786;9.996;2024-02-23T01:06:41;9.40;;;9.10;;
12880;SDS011;6508;53.786;9.996;2024-02-23T01:09:08;9.07;;;8.77;;
12880;SDS011;6508;53.786;9.996;2024-02-23T01:11:36;8.90;;;8.70;;
12880;SDS011;6508;53.786;9.996;2024-02-23T01:14:04;8.50;;;8.30;;
12880;SDS011;6508;53.786;9.996;2024-02-23T01:16:34;8.32;;;8.02;;
12880;SDS011;6508;53.786;9.996;2024-02-23T01:19:02;8.10;;;7.90;;
12880;SDS011;6508;53.786;9.996;2024-02-23T01:21:30;7.72;;;7.53;;
12880;SDS011;6508;53.786;9.996;2024-02-23T01:23:58;7.60;;;7.40;;
12880;SDS011;6508;53.786;9.996;2024-02-23T01:26:27;7.90;;;7.70;;
12880;SDS011;6508;53.786;9.996;2024-02-23T01:28:55;7.60;;;7.40;;
12880;SDS011;6508;53.786;9.996;2024-02-23T01:31:23;7.78;;;7.57;;
12880;SDS011;6508;53.786;9.996;2024-02-23T01:33:52;7.38;;;7.18;;
12880;SDS011;6508;53.786;9.996;2024-02-23T01:36:21;7.03;;;6.82;;
12880;SDS011;6508;53.786;9.996;2024-02-23T01:38:49;6.65;;;6.55;;
12880;SDS011;6508;53.786;9.996;2024-02-23T01:41:17;6.20;;;6.10;;
12880;SDS011;6508;53.786;9.996;2024-02-23T01:43:45;6.38;;;6.18;;
12880;SDS011;6508;53.786;9.996;2024-02-23T01:46:13;6.40;;;6.30;;
12880;SDS011;6508;53.786;9.996;2024-02-23T01:48:45;6.55;;;6.45;;
12880;SDS011;6508;53.786;9.996;2024-02-23T01:51:14;6.75;;;6.65;;
12880;SDS011;6508;53.786;9.996;2024-02-23T01:53:42;6.70;;;6.60;;
12880;SDS011;6508;53.786;9.996;2024-02-23T01:56:10;7.03;;;6.82;;
12880;SDS011;6508;53.786;9.996;2024-02-23T01:58:38;6.88;;;6.68;;
12880;SDS011;6508;53.786;9.996;2024-02-23T02:01:07;6.35;;;6.25;;
12880;SDS011;6508;53.786;9.996;2024-02-23T02:03:34;6.45;;;6.25;;
12880;SDS011;6508;53.786;9.996;2024-02-23T02:06:03;6.20;;;6.10;;
12880;SDS011;6508;53.786;9.996;2024-02-23T02:08:32;6.07;;;5.97;;
12880;SDS011;6508;53.786;9.996;2024-02-23T02:11:01;6.10;;;6.00;;
12880;SDS011;6508;53.786;9.996;2024-02-23T02:13:28;6.32;;;6.22;;
12880;SDS011;6508;53.786;9.996;2024-02-23T02:16:00;6.80;;;6.55;;
12880;SDS011;6508;53.786;9.996;2024-02-23T02:18:29;6.93;;;6.82;;
12880;SDS011;6508;53.786;9.996;2024-02-23T02:20:56;7.03;;;6.82;;
12880;SDS011;6508;53.786;9.996;2024-02-23T02:23:25;6.82;;;6.72;;
12880;SDS011;6508;53.786;9.996;2024-02-23T02:25:55;6.75;;;6.55;;
12880;SDS011;6508;53.786;9.996;2024-02-23T02:28:24;6.57;;;6.47;;
12880;SDS011;6508;53.786;9.996;2024-02-23T02:30:51;7.00;;;6.80;;
12880;SDS011;6508;53.786;9.996;2024-02-23T02:33:20;7.20;;;7.00;;
12880;SDS011;6508;53.786;9.996;2024-02-23T02:35:47;6.35;;;6.25;;
12880;SDS011;6508;53.786;9.996;2024-02-23T02:38:16;7.30;;;7.10;;
12880;SDS011;6508;53.786;9.996;2024-02-23T02:40:44;7.25;;;6.95;;
12880;SDS011;6508;53.786;9.996;2024-02-23T02:43:13;7.10;;;6.90;;
12880;SDS011;6508;53.786;9.996;2024-02-23T02:45:41;7.28;;;7.07;;
12880;SDS011;6508;53.786;9.996;2024-02-23T02:48:10;7.10;;;6.90;;
12880;SDS011;6508;53.786;9.996;2024-02-23T02:50:38;7.40;;;7.13;;
12880;SDS011;6508;53.786;9.996;2024-02-23T02:53:06;7.70;;;7.50;;
12880;SDS011;6508;53.786;9.996;2024-02-23T02:55:34;7.60;;;7.30;;
12880;SDS011;6508;53.786;9.996;2024-02-23T02:58:01;7.47;;;7.28;;
12880;SDS011;6508;53.786;9.996;2024-02-23T03:00:31;8.07;;;7.88;;
12880;SDS011;6508;53.786;9.996;2024-02-23T03:02:59;6.35;;;6.25;;
12880;SDS011;6508;53.786;9.996;2024-02-23T03:05:26;6.80;;;6.60;;
12880;SDS011;6508;53.786;9.996;2024-02-23T03:07:54;6.85;;;6.65;;
12880;SDS011;6508;53.786;9.996;2024-02-23T03:10:22;6.93;;;6.72;;
12880;SDS011;6508;53.786;9.996;2024-02-23T03:12:50;7.00;;;6.80;;
12880;SDS011;6508;53.786;9.996;2024-02-23T03:15:17;6.88;;;6.68;;
12880;SDS011;6508;53.786;9.996;2024-02-23T03:17:46;7.60;;;7.40;;
12880;SDS011;6508;53.786;9.996;2024-02-23T03:20:15;7.43;;;7.22;;
12880;SDS011;6508;53.786;9.996;2024-02-23T03:22:43;7.70;;;7.50;;
12880;SDS011;6508;53.786;9.996;2024-02-23T03:25:10;7.72;;;7.53;;
12880;SDS011;6508;53.786;9.996;2024-02-23T03:27:38;8.05;;;7.68;;
12880;SDS011;6508;53.786;9.996;2024-02-23T03:30:06;8.05;;;7.75;;
12880;SDS011;6508;53.786;9.996;2024-02-23T03:32:35;8.02;;;7.70;;
12880;SDS011;6508;53.786;9.996;2024-02-23T03:35:06;7.90;;;7.70;;
12880;SDS011;6508;53.786;9.996;2024-02-23T03:37:35;8.20;;;7.93;;
12880;SDS011;6508;53.786;9.996;2024-02-23T03:40:04;8.50;;;8.10;;
12880;SDS011;6508;53.786;9.996;2024-02-23T03:42:31;8.30;;;8.10;;
12880;SDS011;6508;53.786;9.996;2024-02-23T03:44:59;7.93;;;7.70;;
12880;SDS011;6508;53.786;9.996;2024-02-23T03:47:27;8.02;;;7.72;;
12880;SDS011;6508;53.786;9.996;2024-02-23T03:49:55;8.38;;;7.97;;
12880;SDS011;6508;53.786;9.996;2024-02-23T03:52:24;7.40;;;7.20;;
12880;SDS011;6508;53.786;9.996;2024-02-23T03:54:52;7.80;;;7.28;;
12880;SDS011;6508;53.786;9.996;2024-02-23T03:57:21;7.80;;;7.60;;
12880;SDS011;6508;53.786;9.996;2024-02-23T03:59:52;8.25;;;7.80;;
12880;SDS011;6508;53.786;9.996;2024-02-23T04:02:20;7.78;;;7.43;;
12880;SDS011;6508;53.786;9.996;2024-02-23T04:04:48;8.23;;;7.75;;
12880;SDS011;6508;53.786;9.996;2024-02-23T04:07:16;7.93;;;7.60;;
12880;SDS011;6508;53.786;9.996;2024-02-23T04:09:45;8.18;;;7.88;;
12880;SDS011;6508;53.786;9.996;2024-02-23T04:12:18;8.57;;;8.07;;
12880;SDS011;6508;53.786;9.996;2024-02-23T04:14:46;8.00;;;7.60;;
12880;SDS011;6508;53.786;9.996;2024-02-23T04:17:14;7.75;;;7.45;;
12880;SDS011;6508;53.786;9.996;2024-02-23T04:19:42;8.60;;;8.20;;
12880;SDS011;6508;53.786;9.996;2024-02-23T04:22:10;8.18;;;7.85;;
12880;SDS011;6508;53.786;9.996;2024-02-23T04:24:38;7.90;;;7.70;;
12880;SDS011;6508;53.786;9.996;2024-02-23T04:27:07;8.18;;;7.88;;
12880;SDS011;6508;53.786;9.996;2024-02-23T04:29:34;7.75;;;7.55;;
12880;SDS011;6508;53.786;9.996;2024-02-23T04:32:03;7.95;;;7.55;;
12880;SDS011;6508;53.786;9.996;2024-02-23T04:34:31;7.65;;;7.40;;
12880;SDS011;6508;53.786;9.996;2024-02-23T04:36:59;8.60;;;8.18;;
12880;SDS011;6508;53.786;9.996;2024-02-23T04:39:27;8.30;;;7.90;;
12880;SDS011;6508;53.786;9.996;2024-02-23T04:41:54;8.48;;;8.05;;
12880;SDS011;6508;53.786;9.996;2024-02-23T04:44:23;8.82;;;8.43;;
12880;SDS011;6508;53.786;9.996;2024-02-23T04:46:51;9.00;;;8.60;;
12880;SDS011;6508;53.786;9.996;2024-02-23T04:49:19;9.10;;;8.65;;
12880;SDS011;6508;53.786;9.996;2024-02-23T04:51:47;8.57;;;8.27;;
12880;SDS011;6508;53.786;9.996;2024-02-23T04:54:15;8.82;;;8.48;;
12880;SDS011;6508;53.786;9.996;2024-02-23T04:56:42;8.95;;;8.57;;
12880;SDS011;6508;53.786;9.996;2024-02-23T04:59:10;9.50;;;9.00;;
12880;SDS011;6508;53.786;9.996;2024-02-23T05:01:39;9.40;;;9.00;;
12880;SDS011;6508;53.786;9.996;2024-02-23T05:04:07;9.77;;;9.30;;
12880;SDS011;6508;53.786;9.996;2024-02-23T05:06:34;9.95;;;9.52;;
12880;SDS011;6508;53.786;9.996;2024-02-23T05:09:02;9.38;;;9.00;;
12880;SDS011;6508;53.786;9.996;2024-02-23T05:11:32;10.02;;;9.70;;
12880;SDS011;6508;53.786;9.996;2024-02-23T05:14:00;9.52;;;9.23;;
12880;SDS011;6508;53.786;9.996;2024-02-23T05:16:27;9.63;;;9.20;;
12880;SDS011;6508;53.786;9.996;2024-02-23T05:18:56;9.90;;;9.50;;
12880;SDS011;6508;53.786;9.996;2024-02-23T05:21:24;9.63;;;9.23;;
12880;SDS011;6508;53.786;9.996;2024-02-23T05:23:53;9.98;;;9.50;;
12880;SDS011;6508;53.786;9.996;2024-02-23T05:26:20;9.77;;;9.35;;
12880;SDS011;6508;53.786;9.996;2024-02-23T05:28:48;9.38;;;8.98;;
12880;SDS011;6508;53.786;9.996;2024-02-23T05:31:16;9.98;;;9.18;;
12880;SDS011;6508;53.786;9.996;2024-02-23T05:33:44;9.35;;;8.85;;
12880;SDS011;6508;53.786;9.996;2024-02-23T05:36:16;9.55;;;9.13;;
12880;SDS011;6508;53.786;9.996;2024-02-23T05:38:44;9.57;;;9.18;;
12880;SDS011;6508;53.786;9.996;2024-02-23T05:41:12;9.60;;;9.05;;
12880;SDS011;6508;53.786;9.996;2024-02-23T05:43:40;9.20;;;8.90;;
12880;SDS011;6508;53.786;9.996;2024-02-23T05:46:08;9.23;;;8.82;;
12880;SDS011;6508;53.786;9.996;2024-02-23T05:48:35;9.75;;;9.35;;
12880;SDS011;6508;53.786;9.996;2024-02-23T05:51:04;9.80;;;9.40;;
12880;SDS011;6508;53.786;9.996;2024-02-23T05:53:33;9.60;;;9.18;;
12880;SDS011;6508;53.786;9.996;2024-02-23T05:56:01;10.52;;;9.85;;
12880;SDS011;6508;53.786;9.996;2024-02-23T05:58:29;10.88;;;10.18;;
12880;SDS011;6508;53.786;9.996;2024-02-23T06:00:57;11.20;;;10.57;;
12880;SDS011;6508;53.786;9.996;2024-02-23T06:03:25;11.40;;;10.70;;
12880;SDS011;6508;53.786;9.996;2024-02-23T06:05:53;11.20;;;10.70;;
12880;SDS011;6508;53.786;9.996;2024-02-23T06:08:21;9.52;;;9.13;;
12880;SDS011;6508;53.786;9.996;2024-02-23T06:10:50;9.55;;;9.25;;
12880;SDS011;6508;53.786;9.996;2024-02-23T06:13:18;10.32;;;9.73;;
12880;SDS011;6508;53.786;9.996;2024-02-23T06:15:45;9.93;;;9.52;;
12880;SDS011;6508;53.786;9.996;2024-02-23T06:18:13;10.23;;;9.68;;
12880;SDS011;6508;53.786;9.996;2024-02-23T06:20:41;11.27;;;10.30;;
12880;SDS011;6508;53.786;9.996;2024-02-23T06:23:09;10.80;;;10.00;;
12880;SDS011;6508;53.786;9.996;2024-02-23T06:25:37;10.02;;;9.65;;
12880;SDS011;6508;53.786;9.996;2024-02-23T06:28:06;10.35;;;9.77;;
12880;SDS011;6508;53.786;9.996;2024-02-23T06:30:34;9.77;;;9.38;;
12880;SDS011;6508;53.786;9.996;2024-02-23T06:33:02;9.27;;;8.80;;
12880;SDS011;6508;53.786;9.996;2024-02-23T06:35:31;9.48;;;8.98;;
12880;SDS011;6508;53.786;9.996;2024-02-23T06:37:59;9.52;;;8.93;;
12880;SDS011;6508;53.786;9.996;2024-02-23T06:40:27;8.82;;;8.40;;
12880;SDS011;6508;53.786;9.996;2024-02-23T06:43:13;9.60;;;9.30;;
12880;SDS011;6508;53.786;9.996;2024-02-23T06:45:40;10.57;;;9.80;;
12880;SDS011;6508;53.786;9.996;2024-02-23T06:48:08;9.48;;;9.05;;
12880;SDS011;6508;53.786;9.996;2024-02-23T06:50:36;9.40;;;9.00;;
12880;SDS011;6508;53.786;9.996;2024-02-23T06:53:04;10.05;;;9.52;;
12880;SDS011;6508;53.786;9.996;2024-02-23T06:55:33;10.18;;;9.70;;
12880;SDS011;6508;53.786;9.996;2024-02-23T06:58:02;9.75;;;9.38;;
12880;SDS011;6508;53.786;9.996;2024-02-23T07:00:32;10.88;;;10.18;;
12880;SDS011;6508;53.786;9.996;2024-02-23T07:03:00;10.55;;;10.05;;
12880;SDS011;6508;53.786;9.996;2024-02-23T07:05:30;10.43;;;9.68;;
12880;SDS011;6508;53.786;9.996;2024-02-23T07:07:59;10.70;;;10.13;;
12880;SDS011;6508;53.786;9.996;2024-02-23T07:10:27;10.43;;;9.82;;
12880;SDS011;6508;53.786;9.996;2024-02-23T07:12:55;10.18;;;9.52;;
12880;SDS011;6508;53.786;9.996;2024-02-23T07:15:24;10.15;;;9.65;;
12880;SDS011;6508;53.786;9.996;2024-02-23T07:17:53;10.50;;;10.00;;
12880;SDS011;6508;53.786;9.996;2024-02-23T07:20:21;9.80;;;9.25;;
12880;SDS011;6508;53.786;9.996;2024-02-23T07:22:50;10.63;;;10.02;;
12880;SDS011;6508;53.786;9.996;2024-02-23T07:25:17;10.85;;;10.15;;
12880;SDS011;6508;53.786;9.996;2024-02-23T07:27:47;9.80;;;9.38;;
12880;SDS011;6508;53.786;9.996;2024-02-23T07:30:16;9.93;;;9.43;;
12880;SDS011;6508;53.786;9.996;2024-02-23T07:32:43;9.80;;;9.50;;
12880;SDS011;6508;53.786;9.996;2024-02-23T07:35:19;9.05;;;8.75;;
12880;SDS011;6508;53.786;9.996;2024-02-23T07:37:47;10.40;;;9.80;;
12880;SDS011;6508;53.786;9.996;2024-02-23T07:40:16;9.98;;;9.48;;
12880;SDS011;6508;53.786;9.996;2024-02-23T07:42:47;10.18;;;9.55;;
12880;SDS011;6508;53.786;9.996;2024-02-23T07:45:15;10.35;;;9.65;;
12880;SDS011;6508;53.786;9.996;2024-02-23T07:47:43;10.98;;;10.05;;
12880;SDS011;6508;53.786;9.996;2024-02-23T07:50:11;10.65;;;10.05;;
12880;SDS011;6508;53.786;9.996;2024-02-23T07:52:40;11.13;;;10.35;;
12880;SDS011;6508;53.786;9.996;2024-02-23T07:55:08;10.32;;;9.90;;
12880;SDS011;6508;53.786;9.996;2024-02-23T07:57:39;10.90;;;10.30;;
12880;SDS011;6508;53.786;9.996;2024-02-23T08:00:08;10.52;;;9.98;;
12880;SDS011;6508;53.786;9.996;2024-02-23T08:02:39;10.43;;;10.00;;
12880;SDS011;6508;53.786;9.996;2024-02-23T08:05:07;10.85;;;10.05;;
12880;SDS011;6508;53.786;9.996;2024-02-23T08:07:35;9.88;;;9.38;;
12880;SDS011;6508;53.786;9.996;2024-02-23T08:10:04;9.15;;;8.75;;
12880;SDS011;6508;53.786;9.996;2024-02-23T08:12:33;10.25;;;9.68;;
12880;SDS011;6508;53.786;9.996;2024-02-23T08:15:07;9.48;;;8.85;;
12880;SDS011;6508;53.786;9.996;2024-02-23T08:17:35;9.70;;;9.10;;
12880;SDS011;6508;53.786;9.996;2024-02-23T08:20:04;9.63;;;8.90;;
12880;SDS011;6508;53.786;9.996;2024-02-23T08:22:32;10.25;;;9.68;;
12880;SDS011;6508;53.786;9.996;2024-02-23T08:25:00;9.63;;;9.13;;
12880;SDS011;6508;53.786;9.996;2024-02-23T08:27:29;9.88;;;9.18;;
12880;SDS011;6508;53.786;9.996;2024-02-23T08:29:57;9.30;;;8.85;;
12880;SDS011;6508;53.786;9.996;2024-02-23T08:32:24;10.27;;;9.68;;
12880;SDS011;6508;53.786;9.996;2024-02-23T08:34:52;9.77;;;9.07;;
12880;SDS011;6508;53.786;9.996;2024-02-23T08:37:26;9.65;;;9.05;;
12880;SDS011;6508;53.786;9.996;2024-02-23T08:39:53;9.80;;;9.15;;
12880;SDS011;6508;53.786;9.996;2024-02-23T08:42:23;10.05;;;9.27;;
12880;SDS011;6508;53.786;9.996;2024-02-23T08:44:52;8.90;;;8.50;;
12880;SDS011;6508;53.786;9.996;2024-02-23T08:47:21;9.60;;;9.10;;
12880;SDS011;6508;53.786;9.996;2024-02-23T08:49:48;9.75;;;9.07;;
12880;SDS011;6508;53.786;9.996;2024-02-23T08:52:16;9.40;;;8.80;;
12880;SDS011;6508;53.786;9.996;2024-02-23T08:54:44;9.27;;;8.68;;
12880;SDS011;6508;53.786;9.996;2024-02-23T08:57:11;9.55;;;8.88;;
12880;SDS011;6508;53.786;9.996;2024-02-23T08:59:43;8.70;;;8.07;;
12880;SDS011;6508;53.786;9.996;2024-02-23T09:02:12;8.57;;;7.97;;
12880;SDS011;6508;53.786;9.996;2024-02-23T09:04:40;8.48;;;7.65;;
12880;SDS011;6508;53.786;9.996;2024-02-23T09:07:08;9.05;;;8.45;;
12880;SDS011;6508;53.786;9.996;2024-02-23T09:09:36;9.00;;;8.48;;
12880;SDS011;6508;53.786;9.996;2024-02-23T09:12:04;8.10;;;7.55;;
12880;SDS011;6508;53.786;9.996;2024-02-23T09:14:33;8.20;;;7.75;;
12880;SDS011;6508;53.786;9.996;2024-02-23T09:17:04;8.48;;;7.82;;
12880;SDS011;6508;53.786;9.996;2024-02-23T09:19:33;8.38;;;7.82;;
12880;SDS011;6508;53.786;9.996;2024-02-23T09:22:01;8.35;;;7.85;;
12880;SDS011;6508;53.786;9.996;2024-02-23T09:24:28;7.07;;;6.75;;
12880;SDS011;6508;53.786;9.996;2024-02-23T09:26:56;8.13;;;7.53;;
12880;SDS011;6508;53.786;9.996;2024-02-23T09:29:24;7.45;;;7.15;;
12880;SDS011;6508;53.786;9.996;2024-02-23T09:31:52;7.72;;;7.22;;
12880;SDS011;6508;53.786;9.996;2024-02-23T09:34:20;8.07;;;7.57;;
12880;SDS011;6508;53.786;9.996;2024-02-23T09:36:49;7.15;;;6.60;;
12880;SDS011;6508;53.786;9.996;2024-02-23T09:39:16;6.40;;;6.10;;
12880;SDS011;6508;53.786;9.996;2024-02-23T09:41:44;6.85;;;6.55;;
12880;SDS011;6508;53.786;9.996;2024-02-23T09:44:12;6.72;;;6.43;;
12880;SDS011;6508;53.786;9.996;2024-02-23T09:46:41;6.20;;;5.90;;
12880;SDS011;6508;53.786;9.996;2024-02-23T09:49:11;6.55;;;6.25;;
12880;SDS011;6508;53.786;9.996;2024-02-23T09:51:39;5.53;;;5.22;;
12880;SDS011;6508;53.786;9.996;2024-02-23T09:54:09;6.00;;;5.60;;
12880;SDS011;6508;53.786;9.996;2024-02-23T09:56:37;6.20;;;5.65;;
12880;SDS011;6508;53.786;9.996;2024-02-23T09:59:05;5.95;;;5.65;;
12880;SDS011;6508;53.786;9.996;2024-02-23T10:01:33;7.68;;;5.30;;
12880;SDS011;6508;53.786;9.996;2024-02-23T10:04:03;7.00;;;6.03;;
12880;SDS011;6508;53.786;9.996;2024-02-23T10:06:32;6.88;;;6.13;;
12880;SDS011;6508;53.786;9.996;2024-02-23T10:09:00;5.65;;;5.20;;
12880;SDS011;6508;53.786;9.996;2024-02-23T10:11:32;5.55;;;5.22;;
12880;SDS011;6508;53.786;9.996;2024-02-23T10:13:59;5.70;;;5.22;;
12880;SDS011;6508;53.786;9.996;2024-02-23T10:16:27;4.90;;;4.50;;
12880;SDS011;6508;53.786;9.996;2024-02-23T10:18:55;5.25;;;4.82;;
12880;SDS011;6508;53.786;9.996;2024-02-23T10:21:24;4.78;;;4.45;;
12880;SDS011;6508;53.786;9.996;2024-02-23T10:23:52;4.90;;;4.60;;
12880;SDS011;6508;53.786;9.996;2024-02-23T10:26:20;5.05;;;4.80;;
12880;SDS011;6508;53.786;9.996;2024-02-23T10:28:50;4.82;;;4.57;;
12880;SDS011;6508;53.786;9.996;2024-02-23T10:31:18;7.30;;;5.25;;
12880;SDS011;6508;53.786;9.996;2024-02-23T10:33:46;5.05;;;4.85;;
12880;SDS011;6508;53.786;9.996;2024-02-23T10:36:17;5.00;;;4.57;;
12880;SDS011;6508;53.786;9.996;2024-02-23T10:38:45;5.35;;;4.80;;
12880;SDS011;6508;53.786;9.996;2024-02-23T10:41:14;6.05;;;5.18;;
12880;SDS011;6508;53.786;9.996;2024-02-23T10:43:45;7.18;;;5.50;;
12880;SDS011;6508;53.786;9.996;2024-02-23T10:46:15;5.05;;;4.78;;
12880;SDS011;6508;53.786;9.996;2024-02-23T10:48:44;5.60;;;5.10;;
12880;SDS011;6508;53.786;9.996;2024-02-23T10:51:13;5.10;;;4.90;;
12880;SDS011;6508;53.786;9.996;2024-02-23T10:53:46;4.38;;;4.18;;
12880;SDS011;6508;53.786;9.996;2024-02-23T10:56:15;5.75;;;4.80;;
12880;SDS011;6508;53.786;9.996;2024-02-23T10:58:43;5.18;;;4.57;;
12880;SDS011;6508;53.786;9.996;2024-02-23T11:01:12;8.70;;;5.07;;
12880;SDS011;6508;53.786;9.996;2024-02-23T11:03:42;4.57;;;4.28;;
12880;SDS011;6508;53.786;9.996;2024-02-23T11:06:13;4.70;;;4.40;;
12880;SDS011;6508;53.786;9.996;2024-02-23T11:08:42;4.38;;;4.10;;
12880;SDS011;6508;53.786;9.996;2024-02-23T11:11:11;4.35;;;4.10;;
12880;SDS011;6508;53.786;9.996;2024-02-23T11:13:42;4.70;;;4.20;;
12880;SDS011;6508;53.786;9.996;2024-02-23T11:16:11;4.75;;;4.40;;
12880;SDS011;6508;53.786;9.996;2024-02-23T11:18:39;4.55;;;4.20;;
12880;SDS011;6508;53.786;9.996;2024-02-23T11:21:10;4.32;;;4.13;;
12880;SDS011;6508;53.786;9.996;2024-02-23T11:23:41;5.07;;;4.78;;
12880;SDS011;6508;53.786;9.996;2024-02-23T11:26:09;4.30;;;4.07;;
12880;SDS011;6508;53.786;9.996;2024-02-23T11:28:43;4.68;;;4.28;;
12880;SDS011;6508;53.786;9.996;2024-02-23T11:31:14;4.53;;;4.32;;
12880;SDS011;6508;53.786;9.996;2024-02-23T11:33:48;4.85;;;4.45;;
12880;SDS011;6508;53.786;9.996;2024-02-23T11:36:24;4.65;;;4.43;;
12880;SDS011;6508;53.786;9.996;2024-02-23T11:38:55;4.45;;;4.15;;
12880;SDS011;6508;53.786;9.996;2024-02-23T11:41:23;4.30;;;4.10;;
12880;SDS011;6508;53.786;9.996;2024-02-23T11:43:52;4.20;;;3.90;;
12880;SDS011;6508;53.786;9.996;2024-02-23T11:46:20;4.20;;;4.00;;
12880;SDS011;6508;53.786;9.996;2024-02-23T11:48:47;4.20;;;4.10;;
12880;SDS011;6508;53.786;9.996;2024-02-23T11:51:20;4.22;;;4.03;;
12880;SDS011;6508;53.786;9.996;2024-02-23T11:53:51;4.47;;;4.18;;
12880;SDS011;6508;53.786;9.996;2024-02-23T11:56:19;5.00;;;4.78;;
12880;SDS011;6508;53.786;9.996;2024-02-23T11:58:47;4.70;;;3.90;;
12880;SDS011;6508;53.786;9.996;2024-02-23T12:01:14;4.30;;;4.10;;
12880;SDS011;6508;53.786;9.996;2024-02-23T12:03:42;5.00;;;3.88;;
12880;SDS011;6508;53.786;9.996;2024-02-23T12:06:11;3.75;;;3.53;;
12880;SDS011;6508;53.786;9.996;2024-02-23T12:08:39;4.20;;;3.90;;
12880;SDS011;6508;53.786;9.996;2024-02-23T12:11:09;3.90;;;3.58;;
12880;SDS011;6508;53.786;9.996;2024-02-23T12:13:37;4.18;;;3.88;;
12880;SDS011;6508;53.786;9.996;2024-02-23T12:16:06;4.65;;;3.85;;
12880;SDS011;6508;53.786;9.996;2024-02-23T12:18:35;4.07;;;3.80;;
12880;SDS011;6508;53.786;9.996;2024-02-23T12:21:04;4.60;;;4.20;;
12880;SDS011;6508;53.786;9.996;2024-02-23T12:23:42;5.05;;;4.63;;
12880;SDS011;6508;53.786;9.996;2024-02-23T12:26:13;4.20;;;4.10;;
12880;SDS011;6508;53.786;9.996;2024-02-23T12:28:41;4.40;;;4.25;;
12880;SDS011;6508;53.786;9.996;2024-02-23T12:31:09;3.95;;;3.50;;
12880;SDS011;6508;53.786;9.996;2024-02-23T12:33:37;3.83;;;3.50;;
12880;SDS011;6508;53.786;9.996;2024-02-23T12:36:07;3.53;;;3.42;;
12880;SDS011;6508;53.786;9.996;2024-02-23T12:38:35;4.40;;;4.13;;
12880;SDS011;6508;53.786;9.996;2024-02-23T12:41:03;4.30;;;4.10;;
12880;SDS011;6508;53.786;9.996;2024-02-23T12:43:33;4.47;;;4.10;;
12880;SDS011;6508;53.786;9.996;2024-02-23T12:46:04;4.15;;;3.95;;
12880;SDS011;6508;53.786;9.996;2024-02-23T12:48:33;4.30;;;4.10;;
12880;SDS011;6508;53.786;9.996;2024-02-23T12:51:01;4.15;;;3.97;;
12880;SDS011;6508;53.786;9.996;2024-02-23T12:53:32;4.13;;;3.92;;
12880;SDS011;6508;53.786;9.996;2024-02-23T12:56:01;4.80;;;4.45;;
12880;SDS011;6508;53.786;9.996;2024-02-23T12:58:29;4.82;;;4.35;;
12880;SDS011;6508;53.786;9.996;2024-02-23T13:00:58;3.97;;;3.78;;
12880;SDS011;6508;53.786;9.996;2024-02-23T13:03:26;4.60;;;4.30;;
12880;SDS011;6508;53.786;9.996;2024-02-23T13:05:55;4.22;;;4.03;;
12880;SDS011;6508;53.786;9.996;2024-02-23T13:08:23;4.35;;;4.07;;
12880;SDS011;6508;53.786;9.996;2024-02-23T13:10:51;4.30;;;4.10;;
12880;SDS011;6508;53.786;9.996;2024-02-23T13:13:19;4.70;;;4.40;;
12880;SDS011;6508;53.786;9.996;2024-02-23T13:15:48;4.53;;;4.32;;
12880;SDS011;6508;53.786;9.996;2024-02-23T13:18:17;4.40;;;4.10;;
12880;SDS011;6508;53.786;9.996;2024-02-23T13:20:46;5.10;;;4.80;;
12880;SDS011;6508;53.786;9.996;2024-02-23T13:23:14;5.40;;;5.03;;
12880;SDS011;6508;53.786;9.996;2024-02-23T13:25:42;5.03;;;4.70;;
12880;SDS011;6508;53.786;9.996;2024-02-23T13:28:10;4.88;;;4.60;;
12880;SDS011;6508;53.786;9.996;2024-02-23T13:30:38;5.60;;;5.30;;
12880;SDS011;6508;53.786;9.996;2024-02-23T13:33:06;4.38;;;4.22;;
12880;SDS011;6508;53.786;9.996;2024-02-23T13:35:36;4.90;;;4.70;;
12880;SDS011;6508;53.786;9.996;2024-02-23T13:38:05;4.72;;;4.53;;
12880;SDS011;6508;53.786;9.996;2024-02-23T13:40:33;4.90;;;4.70;;
12880;SDS011;6508;53.786;9.996;2024-02-23T13:43:01;4.43;;;4.20;;
12880;SDS011;6508;53.786;9.996;2024-02-23T13:45:29;4.90;;;4.70;;
12880;SDS011;6508;53.786;9.996;2024-02-23T13:47:57;5.00;;;4.80;;
12880;SDS011;6508;53.786;9.996;2024-02-23T13:50:26;4.78;;;4.47;;
12880;SDS011;6508;53.786;9.996;2024-02-23T13:52:55;4.70;;;4.50;;
12880;SDS011;6508;53.786;9.996;2024-02-23T13:55:23;4.70;;;4.40;;
12880;SDS011;6508;53.786;9.996;2024-02-23T13:57:51;4.80;;;4.50;;
12880;SDS011;6508;53.786;9.996;2024-02-23T14:00:19;5.40;;;4.57;;
12880;SDS011;6508;53.786;9.996;2024-02-23T14:02:48;4.85;;;4.50;;
12880;SDS011;6508;53.786;9.996;2024-02-23T14:05:15;5.07;;;4.75;;
12880;SDS011;6508;53.786;9.996;2024-02-23T14:07:45;5.15;;;5.00;;
12880;SDS011;6508;53.786;9.996;2024-02-23T14:10:14;4.75;;;4.65;;
12880;SDS011;6508;53.786;9.996;2024-02-23T14:12:41;5.03;;;4.72;;
12880;SDS011;6508;53.786;9.996;2024-02-23T14:15:09;4.50;;;4.30;;
12880;SDS011;6508;53.786;9.996;2024-02-23T14:17:39;4.40;;;4.30;;
12880;SDS011;6508;53.786;9.996;2024-02-23T14:20:07;4.70;;;4.38;;
12880;SDS011;6508;53.786;9.996;2024-02-23T14:22:35;4.65;;;4.50;;
12880;SDS011;6508;53.786;9.996;2024-02-23T14:25:04;4.40;;;4.20;;
12880;SDS011;6508;53.786;9.996;2024-02-23T14:27:33;3.97;;;3.88;;
12880;SDS011;6508;53.786;9.996;2024-02-23T14:30:01;4.90;;;4.50;;
12880;SDS011;6508;53.786;9.996;2024-02-23T14:32:28;4.47;;;4.28;;
12880;SDS011;6508;53.786;9.996;2024-02-23T14:34:57;4.05;;;3.92;;
12880;SDS011;6508;53.786;9.996;2024-02-23T14:37:27;4.00;;;3.70;;
12880;SDS011;6508;53.786;9.996;2024-02-23T14:39:55;4.28;;;3.97;;
12880;SDS011;6508;53.786;9.996;2024-02-23T14:42:23;5.00;;;4.80;;
12880;SDS011;6508;53.786;9.996;2024-02-23T14:44:52;5.47;;;4.07;;
12880;SDS011;6508;53.786;9.996;2024-02-23T14:47:19;4.13;;;3.92;;
12880;SDS011;6508;53.786;9.996;2024-02-23T14:50:00;4.22;;;4.03;;
12880;SDS011;6508;53.786;9.996;2024-02-23T14:52:29;4.65;;;4.32;;
12880;SDS011;6508;53.786;9.996;2024-02-23T14:54:56;3.70;;;3.60;;
12880;SDS011;6508;53.786;9.996;2024-02-23T14:57:24;4.75;;;4.50;;
12880;SDS011;6508;53.786;9.996;2024-02-23T14:59:53;4.80;;;4.32;;
12880;SDS011;6508;53.786;9.996;2024-02-23T15:02:21;4.53;;;4.22;;
12880;SDS011;6508;53.786;9.996;2024-02-23T15:04:49;4.65;;;4.40;;
12880;SDS011;6508;53.786;9.996;2024-02-23T15:07:17;4.15;;;4.03;;